Time;durP1;ratioP1;P1;durP2;ratioP2;P2;SDS_P1;SDS_P2;PMS_P1;PMS_P2;Temp;Humidity;BMP_temperature;BMP_pressure;BME280_temperature;BME280_humidity;BME280_pressure;Samples;Min_cycle;Max_cycle;Signal;HPM_P1;HPM_P2
2024/01/18 00:00:19;;;;;;;29.92;20.05;;;;;;;;;;5039531;28;20045;-71
2024/01/18 00:02:45;;;;;;;28.80;19.25;;;;;;;;;;5039743;28;20049;-71
2024/01/18 00:05:11;;;;;;;29.98;20.20;;;;;;;;;;5041823;28;20047;-71
2024/01/18 00:07:37;;;;;;;31.80;20.17;;;;;;;;;;5043260;28;20486;-71
2024/01/18 00:10:04;;;;;;;29.95;19.20;;;;;;;;;;5019864;28;20061;-71
2024/01/18 00:12:30;;;;;;;28.50;19.50;;;;;;;;;;5021139;28;20041;-71
2024/01/18 00:14:56;;;;;;;28.85;19.42;;;;;;;;;;5042688;28;20041;-71
2024/01/18 00:17:22;;;;;;;27.33;18.77;;;;;;;;;;5047376;28;20045;-71
2024/01/18 00:19:48;;;;;;;29.67;19.80;;;;;;;;;;5044003;28;20557;-72
2024/01/18 00:22:14;;;;;;;25.90;18.67;;;;;;;;;;5024282;28;20087;-71
2024/01/18 00:24:40;;;;;;;29.77;19.33;;;;;;;;;;5045409;28;20126;-71
2024/01/18 00:27:06;;;;;;;31.60;18.67;;;;;;;;;;5044203;28;20130;-71
2024/01/18 00:29:32;;;;;;;26.48;17.55;;;;;;;;;;5022028;28;20586;-71
2024/01/18 00:31:58;;;;;;;32.40;17.00;;;;;;;;;;5047745;28;20424;-71
2024/01/18 00:34:24;;;;;;;24.70;15.73;;;;;;;;;;5045753;28;20045;-71
2024/01/18 00:36:50;;;;;;;26.08;15.02;;;;;;;;;;5049051;28;20041;-71
2024/01/18 00:39:19;;;;;;;22.50;14.60;;;;;;;;;;5024581;28;20060;-71
2024/01/18 00:41:46;;;;;;;22.27;14.50;;;;;;;;;;5026404;28;20061;-71
2024/01/18 00:44:12;;;;;;;20.65;13.75;;;;;;;;;;5026700;28;20045;-71
2024/01/18 00:46:38;;;;;;;27.77;15.32;;;;;;;;;;5028246;28;20044;-71
2024/01/18 00:49:04;;;;;;;21.27;13.60;;;;;;;;;;5043212;28;20547;-71
2024/01/18 00:51:31;;;;;;;24.30;13.60;;;;;;;;;;5041306;28;20077;-71
2024/01/18 00:53:57;;;;;;;20.05;13.75;;;;;;;;;;5025114;28;20118;-70
2024/01/18 00:56:23;;;;;;;19.25;12.00;;;;;;;;;;5026219;28;20461;-70
2024/01/18 00:58:49;;;;;;;21.83;11.98;;;;;;;;;;5019845;28;20420;-70
2024/01/18 01:01:16;;;;;;;24.38;11.88;;;;;;;;;;5040595;28;20087;-70
2024/01/18 01:03:42;;;;;;;22.67;12.32;;;;;;;;;;5025413;28;20050;-70
2024/01/18 01:06:11;;;;;;;19.92;12.90;;;;;;;;;;5027693;28;20083;-70
2024/01/18 01:08:38;;;;;;;17.70;12.15;;;;;;;;;;5045618;28;20175;-70
2024/01/18 01:11:04;;;;;;;23.10;11.70;;;;;;;;;;5042627;28;20044;-71
2024/01/18 01:13:30;;;;;;;19.70;11.65;;;;;;;;;;5046407;28;20434;-70
2024/01/18 01:15:56;;;;;;;18.73;10.93;;;;;;;;;;5025380;28;20053;-70
2024/01/18 01:18:22;;;;;;;17.67;11.07;;;;;;;;;;5021906;28;20061;-70
2024/01/18 01:20:48;;;;;;;18.90;11.23;;;;;;;;;;5027113;28;20140;-70
2024/01/18 01:23:15;;;;;;;19.13;10.05;;;;;;;;;;5018741;28;21445;-71
2024/01/18 01:25:41;;;;;;;16.25;10.02;;;;;;;;;;5024877;28;20041;-71
2024/01/18 01:28:07;;;;;;;17.30;9.57;;;;;;;;;;5023484;28;20041;-70
2024/01/18 01:30:33;;;;;;;18.48;9.75;;;;;;;;;;5039568;28;20045;-70
2024/01/18 01:32:59;;;;;;;18.90;9.77;;;;;;;;;;5019521;28;20132;-70
2024/01/18 01:35:25;;;;;;;21.55;9.57;;;;;;;;;;5026019;28;20055;-70
2024/01/18 01:37:51;;;;;;;15.25;9.20;;;;;;;;;;5023489;28;20040;-70
2024/01/18 01:40:18;;;;;;;16.02;9.63;;;;;;;;;;5043930;28;20413;-70
2024/01/18 01:42:44;;;;;;;13.55;8.45;;;;;;;;;;5042463;28;20431;-70
2024/01/18 01:45:10;;;;;;;12.50;8.45;;;;;;;;;;5042175;28;20479;-70
2024/01/18 01:47:36;;;;;;;16.38;7.90;;;;;;;;;;5043645;28;20477;-70
2024/01/18 01:50:03;;;;;;;16.30;8.63;;;;;;;;;;5040303;28;20972;-70
2024/01/18 01:52:30;;;;;;;13.05;7.57;;;;;;;;;;5041030;28;20619;-71
2024/01/18 01:54:56;;;;;;;11.15;7.40;;;;;;;;;;5022392;28;20496;-70
2024/01/18 01:57:24;;;;;;;10.95;7.10;;;;;;;;;;5040980;28;20087;-71
2024/01/18 01:59:50;;;;;;;9.77;7.50;;;;;;;;;;5024080;28;20076;-71
2024/01/18 02:02:17;;;;;;;12.30;7.25;;;;;;;;;;5039486;28;20052;-71
2024/01/18 02:04:43;;;;;;;13.50;7.40;;;;;;;;;;5024662;28;20079;-71
2024/01/18 02:07:10;;;;;;;16.15;7.28;;;;;;;;;;5044537;28;20120;-71
2024/01/18 02:09:36;;;;;;;10.80;6.82;;;;;;;;;;5026163;28;20049;-71
2024/01/18 02:12:03;;;;;;;13.80;7.53;;;;;;;;;;5043853;28;20041;-71
2024/01/18 02:14:29;;;;;;;10.63;7.28;;;;;;;;;;5020562;28;20049;-71
2024/01/18 02:16:55;;;;;;;12.10;7.03;;;;;;;;;;5024355;28;20094;-71
2024/01/18 02:19:21;;;;;;;13.38;6.90;;;;;;;;;;5040788;28;20053;-71
2024/01/18 02:21:47;;;;;;;12.30;6.95;;;;;;;;;;5044851;28;20059;-71
2024/01/18 02:24:22;;;;;;;9.23;6.78;;;;;;;;;;5019091;28;20067;-71
2024/01/18 02:26:48;;;;;;;12.90;6.22;;;;;;;;;;5042088;28;20044;-71
2024/01/18 02:29:14;;;;;;;11.07;6.68;;;;;;;;;;5019029;28;20450;-71
2024/01/18 02:31:41;;;;;;;12.43;5.65;;;;;;;;;;5024789;28;20059;-71
2024/01/18 02:34:12;;;;;;;11.57;6.00;;;;;;;;;;5018699;28;20504;-71
2024/01/18 02:36:38;;;;;;;10.98;5.15;;;;;;;;;;5044035;28;20484;-71
2024/01/18 02:39:04;;;;;;;11.07;5.30;;;;;;;;;;5042834;28;20041;-71
2024/01/18 02:41:31;;;;;;;13.05;4.82;;;;;;;;;;5021777;28;20041;-71
2024/01/18 02:43:58;;;;;;;12.88;5.20;;;;;;;;;;5022623;28;20047;-71
2024/01/18 02:46:24;;;;;;;9.77;4.97;;;;;;;;;;5040418;28;20048;-71
2024/01/18 02:48:50;;;;;;;10.02;4.70;;;;;;;;;;5040131;28;20408;-71
2024/01/18 02:51:16;;;;;;;12.20;4.68;;;;;;;;;;5020240;28;20128;-71
2024/01/18 02:53:43;;;;;;;10.98;5.30;;;;;;;;;;5021128;28;20124;-71
2024/01/18 02:56:09;;;;;;;9.98;4.53;;;;;;;;;;5024000;28;20041;-71
2024/01/18 02:58:35;;;;;;;10.27;4.85;;;;;;;;;;5043527;28;20044;-72
2024/01/18 03:01:02;;;;;;;8.63;5.13;;;;;;;;;;5043424;28;20040;-71
2024/01/18 03:03:28;;;;;;;11.50;4.80;;;;;;;;;;5019770;28;20956;-71
2024/01/18 03:05:54;;;;;;;13.43;4.82;;;;;;;;;;5019889;28;20059;-71
2024/01/18 03:08:20;;;;;;;8.18;5.00;;;;;;;;;;5030172;28;20052;-72
2024/01/18 03:10:46;;;;;;;10.55;4.95;;;;;;;;;;5041585;28;20045;-71
2024/01/18 03:13:12;;;;;;;10.05;4.55;;;;;;;;;;5027092;28;20048;-71
2024/01/18 03:15:38;;;;;;;12.00;4.30;;;;;;;;;;5042505;28;20041;-72
2024/01/18 03:18:04;;;;;;;7.85;3.90;;;;;;;;;;5019795;28;20056;-71
2024/01/18 03:20:30;;;;;;;7.50;4.20;;;;;;;;;;5019335;28;20420;-73
2024/01/18 03:22:57;;;;;;;9.07;4.20;;;;;;;;;;5025898;28;20045;-72
2024/01/18 03:25:23;;;;;;;12.77;5.63;;;;;;;;;;5023459;28;20045;-72
2024/01/18 03:27:49;;;;;;;8.32;4.03;;;;;;;;;;5039143;28;20127;-73
2024/01/18 03:30:15;;;;;;;7.72;5.15;;;;;;;;;;5022689;28;20120;-73
2024/01/18 03:32:41;;;;;;;7.85;4.70;;;;;;;;;;5024294;28;20045;-73
2024/01/18 03:35:07;;;;;;;12.63;4.90;;;;;;;;;;5035224;28;20155;-73
2024/01/18 03:37:33;;;;;;;10.55;4.60;;;;;;;;;;5042571;28;20041;-74
2024/01/18 03:39:59;;;;;;;9.23;4.38;;;;;;;;;;5020008;28;20386;-73
2024/01/18 03:42:25;;;;;;;9.50;5.57;;;;;;;;;;5022039;28;20098;-73
2024/01/18 03:44:51;;;;;;;12.52;4.85;;;;;;;;;;5023955;28;20045;-73
2024/01/18 03:47:17;;;;;;;7.10;4.75;;;;;;;;;;5039310;28;20469;-73
2024/01/18 03:49:43;;;;;;;9.52;4.40;;;;;;;;;;5044970;28;20041;-73
2024/01/18 03:52:12;;;;;;;7.05;4.20;;;;;;;;;;5043637;28;20044;-74
2024/01/18 03:54:39;;;;;;;10.38;4.05;;;;;;;;;;5024186;28;20053;-73
2024/01/18 03:57:05;;;;;;;9.98;4.82;;;;;;;;;;5025165;28;20823;-74
2024/01/18 03:59:31;;;;;;;7.68;4.57;;;;;;;;;;5045334;28;20440;-74
2024/01/18 04:01:57;;;;;;;7.18;4.30;;;;;;;;;;5028317;28;20068;-73
2024/01/18 04:04:23;;;;;;;10.15;4.30;;;;;;;;;;5044353;28;20083;-72
2024/01/18 04:06:49;;;;;;;9.60;4.97;;;;;;;;;;5027124;28;20072;-74
2024/01/18 04:09:15;;;;;;;12.23;4.97;;;;;;;;;;5026600;28;20045;-73
2024/01/18 04:11:42;;;;;;;9.38;5.18;;;;;;;;;;5023727;28;20051;-72
2024/01/18 04:14:08;;;;;;;9.35;4.57;;;;;;;;;;5024595;28;20135;-73
2024/01/18 04:16:34;;;;;;;9.57;4.85;;;;;;;;;;5026094;28;20079;-72
2024/01/18 04:19:00;;;;;;;9.95;4.75;;;;;;;;;;5026226;28;20068;-72
2024/01/18 04:21:27;;;;;;;6.18;4.22;;;;;;;;;;5009579;28;20782;-72
2024/01/18 04:23:55;;;;;;;8.25;4.35;;;;;;;;;;5044222;28;20213;-72
2024/01/18 04:26:22;;;;;;;12.43;4.90;;;;;;;;;;5047804;28;20087;-72
2024/01/18 04:28:48;;;;;;;9.05;4.50;;;;;;;;;;5022691;28;20501;-72
2024/01/18 04:31:14;;;;;;;12.27;4.47;;;;;;;;;;5025137;28;20056;-72
2024/01/18 04:33:40;;;;;;;10.77;5.00;;;;;;;;;;5026053;28;20045;-73
2024/01/18 04:36:06;;;;;;;7.03;4.63;;;;;;;;;;5024777;28;20099;-72
2024/01/18 04:38:32;;;;;;;9.52;5.28;;;;;;;;;;5045390;28;20037;-73
2024/01/18 04:40:58;;;;;;;10.73;4.82;;;;;;;;;;5042882;28;20106;-74
2024/01/18 04:43:24;;;;;;;11.98;4.95;;;;;;;;;;5046421;28;20045;-74
2024/01/18 04:45:50;;;;;;;10.35;5.28;;;;;;;;;;5028652;28;20099;-74
2024/01/18 04:48:17;;;;;;;9.05;5.93;;;;;;;;;;5028799;28;20072;-74
2024/01/18 04:50:43;;;;;;;8.18;4.38;;;;;;;;;;5042682;28;20041;-74
2024/01/18 04:53:09;;;;;;;11.98;4.53;;;;;;;;;;5033559;28;20131;-74
2024/01/18 04:55:35;;;;;;;12.02;4.13;;;;;;;;;;5022970;28;20132;-74
2024/01/18 04:58:01;;;;;;;10.00;4.20;;;;;;;;;;5027210;28;20463;-74
2024/01/18 05:00:27;;;;;;;9.00;4.30;;;;;;;;;;5038629;28;20041;-74
2024/01/18 05:02:53;;;;;;;6.18;4.38;;;;;;;;;;5025486;28;20122;-74
2024/01/18 05:05:19;;;;;;;9.65;4.25;;;;;;;;;;5025454;28;20124;-75
2024/01/18 05:07:46;;;;;;;7.75;4.60;;;;;;;;;;5046291;28;20045;-74
2024/01/18 05:10:12;;;;;;;9.63;3.40;;;;;;;;;;5025477;28;20393;-75
2024/01/18 05:12:38;;;;;;;10.10;3.17;;;;;;;;;;5028952;28;20538;-74
2024/01/18 05:15:05;;;;;;;7.18;3.50;;;;;;;;;;5026386;28;20055;-73
2024/01/18 05:17:37;;;;;;;10.55;3.67;;;;;;;;;;5027385;28;20103;-73
2024/01/18 05:20:04;;;;;;;5.63;3.03;;;;;;;;;;5043084;28;20041;-73
2024/01/18 05:22:30;;;;;;;5.18;3.35;;;;;;;;;;5025786;28;20052;-73
2024/01/18 05:24:56;;;;;;;6.35;2.97;;;;;;;;;;5024821;28;20056;-73
2024/01/18 05:27:23;;;;;;;11.13;2.85;;;;;;;;;;5009374;28;20059;-73
2024/01/18 05:29:49;;;;;;;8.10;2.60;;;;;;;;;;5042726;28;20187;-73
2024/01/18 05:32:15;;;;;;;10.95;3.28;;;;;;;;;;5021170;28;20076;-73
2024/01/18 05:34:41;;;;;;;6.65;3.60;;;;;;;;;;5043375;28;20045;-73
2024/01/18 05:37:07;;;;;;;7.78;2.58;;;;;;;;;;5026730;28;20416;-73
2024/01/18 05:39:33;;;;;;;4.75;2.47;;;;;;;;;;5020935;28;20168;-73
2024/01/18 05:41:59;;;;;;;6.88;3.00;;;;;;;;;;5043746;28;20166;-73
2024/01/18 05:44:25;;;;;;;9.13;2.90;;;;;;;;;;5042261;28;20132;-73
2024/01/18 05:46:51;;;;;;;9.10;3.53;;;;;;;;;;5025679;28;20049;-74
2024/01/18 05:49:17;;;;;;;4.93;2.95;;;;;;;;;;5040679;28;20048;-73
2024/01/18 05:51:43;;;;;;;8.10;3.67;;;;;;;;;;5040965;28;20048;-73
2024/01/18 05:54:10;;;;;;;12.27;3.28;;;;;;;;;;5044347;28;20090;-73
2024/01/18 05:56:36;;;;;;;8.02;3.22;;;;;;;;;;5022798;28;20102;-73
2024/01/18 05:59:02;;;;;;;7.40;3.78;;;;;;;;;;5041040;28;20497;-73
2024/01/18 06:01:28;;;;;;;10.63;3.97;;;;;;;;;;5036310;28;20098;-73
2024/01/18 06:03:54;;;;;;;7.38;4.00;;;;;;;;;;5037199;28;20045;-73
2024/01/18 06:06:20;;;;;;;8.65;3.72;;;;;;;;;;5022558;28;20105;-73
2024/01/18 06:08:46;;;;;;;7.47;3.75;;;;;;;;;;5020557;28;20580;-74
2024/01/18 06:11:14;;;;;;;11.07;4.03;;;;;;;;;;5042259;28;20394;-73
2024/01/18 06:13:40;;;;;;;5.63;3.33;;;;;;;;;;5010703;28;20467;-73
2024/01/18 06:16:07;;;;;;;8.48;3.50;;;;;;;;;;5042175;28;20124;-74
2024/01/18 06:18:33;;;;;;;5.10;3.40;;;;;;;;;;5038817;28;20049;-73
2024/01/18 06:20:59;;;;;;;7.05;3.67;;;;;;;;;;5021532;28;20693;-73
2024/01/18 06:23:25;;;;;;;5.18;3.40;;;;;;;;;;5022019;28;20132;-73
2024/01/18 06:25:51;;;;;;;6.75;3.08;;;;;;;;;;5030243;28;20123;-73
2024/01/18 06:28:17;;;;;;;6.70;3.22;;;;;;;;;;5023014;28;20037;-73
2024/01/18 06:30:44;;;;;;;4.03;2.50;;;;;;;;;;5003590;28;21840;-73
2024/01/18 06:33:10;;;;;;;6.93;3.20;;;;;;;;;;5035632;28;21487;-73
2024/01/18 06:35:36;;;;;;;5.05;2.88;;;;;;;;;;5038281;28;20067;-73
2024/01/18 06:38:02;;;;;;;9.57;3.20;;;;;;;;;;5042834;28;20056;-75
2024/01/18 06:40:28;;;;;;;8.70;2.83;;;;;;;;;;5021534;28;20059;-75
2024/01/18 06:42:54;;;;;;;4.43;2.83;;;;;;;;;;5007406;28;20072;-75
2024/01/18 06:45:20;;;;;;;6.90;2.85;;;;;;;;;;5039709;28;20083;-75
2024/01/18 06:47:46;;;;;;;7.18;2.75;;;;;;;;;;5036578;28;20048;-75
2024/01/18 06:50:15;;;;;;;7.00;3.17;;;;;;;;;;5018971;28;20594;-75
2024/01/18 06:52:41;;;;;;;6.35;3.00;;;;;;;;;;5022724;28;20045;-75
2024/01/18 06:55:08;;;;;;;6.20;2.53;;;;;;;;;;5025267;28;20052;-75
2024/01/18 06:57:34;;;;;;;7.13;2.63;;;;;;;;;;5042181;28;20044;-75
2024/01/18 07:00:00;;;;;;;6.03;2.72;;;;;;;;;;5044546;28;20047;-75
2024/01/18 07:02:26;;;;;;;5.57;2.58;;;;;;;;;;5016201;28;20136;-75
2024/01/18 07:04:52;;;;;;;5.18;2.50;;;;;;;;;;5024099;28;20132;-75
2024/01/18 07:07:20;;;;;;;3.92;2.65;;;;;;;;;;5048347;28;20128;-75
2024/01/18 07:09:46;;;;;;;6.32;2.55;;;;;;;;;;5041322;28;20098;-73
2024/01/18 07:12:12;;;;;;;7.65;2.92;;;;;;;;;;5043589;28;20041;-73
2024/01/18 07:14:39;;;;;;;5.05;2.30;;;;;;;;;;5020981;28;20045;-73
2024/01/18 07:17:05;;;;;;;6.28;2.80;;;;;;;;;;5025886;28;20055;-73
2024/01/18 07:19:31;;;;;;;3.65;2.30;;;;;;;;;;5042557;28;20084;-73
2024/01/18 07:21:57;;;;;;;3.50;2.20;;;;;;;;;;5043472;28;20080;-73
2024/01/18 07:24:26;;;;;;;5.05;2.13;;;;;;;;;;5049865;28;20133;-73
2024/01/18 07:26:52;;;;;;;5.78;2.33;;;;;;;;;;5047887;28;20545;-73
2024/01/18 07:29:18;;;;;;;3.45;2.08;;;;;;;;;;5027906;28;20037;-73
2024/01/18 07:31:44;;;;;;;9.00;2.20;;;;;;;;;;5030059;28;20506;-73
2024/01/18 07:34:10;;;;;;;7.60;2.15;;;;;;;;;;5047414;28;20488;-73
2024/01/18 07:36:36;;;;;;;4.45;2.13;;;;;;;;;;5035181;28;20053;-73
2024/01/18 07:39:02;;;;;;;6.85;2.15;;;;;;;;;;5047899;28;20045;-73
2024/01/18 07:41:28;;;;;;;2.83;1.92;;;;;;;;;;5030623;28;20053;-73
2024/01/18 07:43:54;;;;;;;5.90;2.05;;;;;;;;;;5046991;28;20059;-73
2024/01/18 07:46:20;;;;;;;6.07;2.15;;;;;;;;;;5046302;28;20072;-73
2024/01/18 07:48:46;;;;;;;2.88;2.10;;;;;;;;;;5047772;28;20121;-73
2024/01/18 07:51:13;;;;;;;5.82;2.10;;;;;;;;;;5047484;28;20041;-74
2024/01/18 07:53:39;;;;;;;4.82;2.30;;;;;;;;;;5029226;28;20080;-73
2024/01/18 07:56:05;;;;;;;4.50;2.33;;;;;;;;;;5028055;28;20140;-73
2024/01/18 07:58:31;;;;;;;6.28;2.25;;;;;;;;;;5029430;28;20410;-74
2024/01/18 08:00:57;;;;;;;4.88;2.22;;;;;;;;;;5024945;28;20040;-74
2024/01/18 08:03:23;;;;;;;6.07;2.30;;;;;;;;;;5028373;28;21848;-74
2024/01/18 08:05:49;;;;;;;5.18;2.20;;;;;;;;;;5047522;28;20045;-74
2024/01/18 08:08:15;;;;;;;4.63;2.20;;;;;;;;;;5046100;28;20041;-74
2024/01/18 08:10:41;;;;;;;3.80;2.13;;;;;;;;;;5045712;28;20037;-74
2024/01/18 08:13:07;;;;;;;4.93;1.95;;;;;;;;;;5043945;28;20048;-74
2024/01/18 08:15:33;;;;;;;7.30;2.58;;;;;;;;;;5028474;28;20409;-74
2024/01/18 08:18:00;;;;;;;4.20;1.77;;;;;;;;;;5028992;28;20051;-74
2024/01/18 08:20:26;;;;;;;4.32;1.80;;;;;;;;;;5034538;28;20136;-74
2024/01/18 08:22:52;;;;;;;5.25;2.67;;;;;;;;;;5027530;28;20049;-74
2024/01/18 08:25:18;;;;;;;8.75;2.58;;;;;;;;;;5024378;28;20048;-74
2024/01/18 08:27:44;;;;;;;6.10;2.42;;;;;;;;;;5046008;28;20044;-75
2024/01/18 08:30:10;;;;;;;5.95;2.65;;;;;;;;;;5028478;28;20040;-74
2024/01/18 08:32:36;;;;;;;8.23;3.30;;;;;;;;;;5041090;28;20041;-74
2024/01/18 08:35:06;;;;;;;5.25;2.50;;;;;;;;;;5041323;28;20056;-75
2024/01/18 08:37:33;;;;;;;6.07;2.92;;;;;;;;;;5025782;28;20045;-70
2024/01/18 08:39:59;;;;;;;8.43;2.05;;;;;;;;;;5025612;28;20512;-76
2024/01/18 08:42:25;;;;;;;9.82;2.45;;;;;;;;;;5028217;28;20056;-76
2024/01/18 08:44:51;;;;;;;8.30;3.17;;;;;;;;;;5041589;28;20627;-76
2024/01/18 08:47:17;;;;;;;20.60;4.55;;;;;;;;;;5030016;28;20429;-76
2024/01/18 08:49:43;;;;;;;20.80;5.10;;;;;;;;;;5029166;28;20037;-76
2024/01/18 08:52:09;;;;;;;28.33;5.22;;;;;;;;;;5030934;28;20055;-76
2024/01/18 08:54:36;;;;;;;17.38;5.10;;;;;;;;;;5029344;28;20049;-76
2024/01/18 08:57:02;;;;;;;14.68;4.85;;;;;;;;;;5028008;28;20382;-76
2024/01/18 08:59:28;;;;;;;21.27;5.47;;;;;;;;;;5034874;28;20056;-76
2024/01/18 09:01:55;;;;;;;18.35;5.45;;;;;;;;;;5026453;28;20556;-75
2024/01/18 09:04:21;;;;;;;23.63;6.07;;;;;;;;;;5045092;28;20045;-76
2024/01/18 09:06:47;;;;;;;28.35;5.47;;;;;;;;;;5028618;28;20128;-76
2024/01/18 09:09:13;;;;;;;29.50;6.53;;;;;;;;;;5028202;28;20068;-76
2024/01/18 09:11:39;;;;;;;30.90;6.28;;;;;;;;;;5026058;28;20152;-75
2024/01/18 09:14:05;;;;;;;16.55;5.00;;;;;;;;;;5029441;28;20046;-76
2024/01/18 09:16:32;;;;;;;14.15;3.85;;;;;;;;;;5048812;28;20048;-76
2024/01/18 09:18:58;;;;;;;5.63;2.35;;;;;;;;;;5028134;28;20037;-76
2024/01/18 09:21:24;;;;;;;4.10;1.92;;;;;;;;;;5028783;28;20048;-76
2024/01/18 09:23:50;;;;;;;5.32;2.30;;;;;;;;;;5027025;28;20059;-75
2024/01/18 09:26:17;;;;;;;5.28;2.00;;;;;;;;;;5028403;28;20052;-76
2024/01/18 09:28:43;;;;;;;7.53;2.10;;;;;;;;;;5028157;28;20513;-76
2024/01/18 09:31:09;;;;;;;7.30;2.20;;;;;;;;;;5030302;28;20044;-75
2024/01/18 09:33:37;;;;;;;7.45;2.20;;;;;;;;;;5028096;28;20075;-75
2024/01/18 09:36:04;;;;;;;4.97;1.83;;;;;;;;;;5029524;28;20090;-75
2024/01/18 09:38:30;;;;;;;4.80;1.80;;;;;;;;;;5026725;28;20110;-75
2024/01/18 09:41:04;;;;;;;8.07;1.80;;;;;;;;;;5047267;28;20141;-75
2024/01/18 09:43:34;;;;;;;6.15;2.50;;;;;;;;;;5027427;28;20048;-75
2024/01/18 09:46:03;;;;;;;3.92;1.88;;;;;;;;;;5025966;28;20056;-75
2024/01/18 09:48:29;;;;;;;7.55;1.90;;;;;;;;;;5027170;28;20044;-74
2024/01/18 09:50:55;;;;;;;4.85;1.55;;;;;;;;;;5043791;28;20044;-74
2024/01/18 09:53:21;;;;;;;5.30;1.90;;;;;;;;;;5024471;28;20044;-73
2024/01/18 09:55:50;;;;;;;5.50;1.75;;;;;;;;;;5039829;28;20087;-72
2024/01/18 09:58:16;;;;;;;10.18;2.10;;;;;;;;;;5027493;28;20047;-72
2024/01/18 10:00:48;;;;;;;7.22;1.98;;;;;;;;;;5021482;28;20045;-72
2024/01/18 10:03:14;;;;;;;8.27;1.95;;;;;;;;;;5021473;28;20056;-72
2024/01/18 10:05:42;;;;;;;8.25;2.00;;;;;;;;;;5039235;28;20132;-72
2024/01/18 10:08:08;;;;;;;5.13;1.75;;;;;;;;;;5027479;28;20055;-72
2024/01/18 10:10:34;;;;;;;6.63;1.80;;;;;;;;;;5025602;28;20049;-72
2024/01/18 10:13:02;;;;;;;37.00;18.33;;;;;;;;;;5024002;28;20103;-72
2024/01/18 10:15:32;;;;;;;5.72;1.83;;;;;;;;;;5041388;28;20500;-71
2024/01/18 10:18:05;;;;;;;4.75;1.67;;;;;;;;;;5026209;28;20048;-72
2024/01/18 10:20:31;;;;;;;5.07;2.17;;;;;;;;;;5042049;28;20093;-73
2024/01/18 10:22:58;;;;;;;5.18;1.77;;;;;;;;;;5043825;28;20479;-73
2024/01/18 10:25:26;;;;;;;5.15;1.90;;;;;;;;;;5025118;28;20512;-74
2024/01/18 10:27:53;;;;;;;5.10;1.98;;;;;;;;;;5044442;28;20374;-74
2024/01/18 10:30:19;;;;;;;6.25;2.00;;;;;;;;;;5042702;28;20103;-75
2024/01/18 10:32:45;;;;;;;6.32;2.28;;;;;;;;;;5025456;28;20045;-76
2024/01/18 10:35:24;;;;;;;7.45;1.73;;;;;;;;;;5043560;28;20045;-74
2024/01/18 10:38:03;;;;;;;6.15;1.77;;;;;;;;;;5041074;28;20045;-73
2024/01/18 10:40:31;;;;;;;6.13;2.10;;;;;;;;;;5025129;28;20052;-74
2024/01/18 10:42:57;;;;;;;7.88;2.10;;;;;;;;;;5026607;28;20118;-75
2024/01/18 10:45:24;;;;;;;6.70;2.05;;;;;;;;;;5025721;28;20041;-74
2024/01/18 10:47:50;;;;;;;4.85;1.75;;;;;;;;;;5044255;28;20137;-73
2024/01/18 10:50:16;;;;;;;6.95;1.63;;;;;;;;;;5043853;28;20041;-73
2024/01/18 10:52:45;;;;;;;5.40;1.70;;;;;;;;;;5025601;28;20409;-72
2024/01/18 10:55:12;;;;;;;3.38;1.35;;;;;;;;;;5040222;28;20440;-72
2024/01/18 10:57:38;;;;;;;5.78;1.67;;;;;;;;;;5026309;28;20132;-72
2024/01/18 11:00:07;;;;;;;6.18;1.42;;;;;;;;;;5042646;28;20060;-72
2024/01/18 11:02:40;;;;;;;7.38;1.70;;;;;;;;;;5024067;28;20048;-72
2024/01/18 11:05:09;;;;;;;7.30;1.52;;;;;;;;;;5024343;28;20475;-73
2024/01/18 11:07:37;;;;;;;8.02;1.50;;;;;;;;;;5040213;28;20055;-72
2024/01/18 11:10:10;;;;;;;4.25;1.40;;;;;;;;;;5178755;22;20048;-73
2024/01/18 11:12:38;;;;;;;4.13;1.63;;;;;;;;;;5053617;28;20143;-73
2024/01/18 11:15:04;;;;;;;6.18;1.42;;;;;;;;;;5069594;28;20102;-73
2024/01/18 11:17:31;;;;;;;8.45;3.22;;;;;;;;;;5072453;28;20778;-73
2024/01/18 11:20:00;;;;;;;15.15;10.93;;;;;;;;;;5066820;28;20048;-73
2024/01/18 11:22:27;;;;;;;4.72;2.95;;;;;;;;;;5069753;28;20497;-73
2024/01/18 11:24:54;;;;;;;24.98;18.08;;;;;;;;;;5066347;28;20123;-74
2024/01/18 11:27:23;;;;;;;4.65;2.28;;;;;;;;;;5068471;28;20052;-74
2024/01/18 11:29:49;;;;;;;4.22;1.50;;;;;;;;;;5066018;28;20040;-74
2024/01/18 11:32:17;;;;;;;4.93;1.58;;;;;;;;;;5068310;28;20044;-74
2024/01/18 11:34:45;;;;;;;4.43;1.48;;;;;;;;;;5066732;28;20052;-74
2024/01/18 11:37:19;;;;;;;5.10;1.60;;;;;;;;;;5069837;28;20541;-74
2024/01/18 11:39:47;;;;;;;4.25;1.63;;;;;;;;;;5068515;28;20040;-74
2024/01/18 11:42:18;;;;;;;3.58;1.60;;;;;;;;;;5071945;28;20051;-74
2024/01/18 11:44:54;;;;;;;3.35;1.85;;;;;;;;;;5053787;28;20033;-74
2024/01/18 11:47:20;;;;;;;4.80;1.55;;;;;;;;;;5073018;28;20051;-74
2024/01/18 11:49:47;;;;;;;3.88;1.30;;;;;;;;;;5064555;28;20059;-74
2024/01/18 11:52:13;;;;;;;2.75;1.15;;;;;;;;;;5070039;28;20047;-75
2024/01/18 11:54:42;;;;;;;3.83;1.17;;;;;;;;;;5067755;28;20044;-75
2024/01/18 11:57:13;;;;;;;2.67;1.20;;;;;;;;;;5071828;28;20052;-75
2024/01/18 11:59:42;;;;;;;2.50;1.40;;;;;;;;;;5067322;28;20032;-76
2024/01/18 12:02:08;;;;;;;4.57;1.15;;;;;;;;;;5069016;28;20066;-76
2024/01/18 12:04:34;;;;;;;4.70;0.90;;;;;;;;;;5066446;28;20028;-76
2024/01/18 12:07:01;;;;;;;3.45;0.95;;;;;;;;;;5063059;28;20487;-76
2024/01/18 12:09:30;;;;;;;2.65;0.90;;;;;;;;;;5068348;28;20036;-76
2024/01/18 12:11:57;;;;;;;4.20;0.90;;;;;;;;;;5062133;28;20054;-76
2024/01/18 12:14:23;;;;;;;3.13;0.90;;;;;;;;;;5062060;28;20060;-75
2024/01/18 12:16:49;;;;;;;4.05;0.88;;;;;;;;;;5066849;28;21090;-76
2024/01/18 12:19:32;;;;;;;2.15;0.75;;;;;;;;;;5071668;28;20056;-76
2024/01/18 12:21:58;;;;;;;2.88;0.70;;;;;;;;;;5074165;28;20091;-76
2024/01/18 12:24:24;;;;;;;3.15;0.80;;;;;;;;;;5065365;28;20045;-76
2024/01/18 12:26:50;;;;;;;5.43;0.90;;;;;;;;;;5054867;28;20041;-76
2024/01/18 12:29:16;;;;;;;3.60;1.00;;;;;;;;;;5070451;28;20048;-76
2024/01/18 12:31:46;;;;;;;3.15;0.75;;;;;;;;;;5077221;28;20047;-76
2024/01/18 12:34:12;;;;;;;1.83;0.70;;;;;;;;;;5069014;28;20043;-76
2024/01/18 12:36:39;;;;;;;3.55;1.02;;;;;;;;;;5063400;28;20044;-76
2024/01/18 12:39:05;;;;;;;3.85;0.70;;;;;;;;;;5070609;28;20036;-76
2024/01/18 12:41:31;;;;;;;2.60;0.73;;;;;;;;;;5072757;28;20520;-76
2024/01/18 12:44:11;;;;;;;2.60;0.70;;;;;;;;;;5070754;28;20062;-76
2024/01/18 12:46:38;;;;;;;4.05;0.80;;;;;;;;;;5075026;28;20543;-76
2024/01/18 12:49:04;;;;;;;1.83;0.80;;;;;;;;;;5068969;28;20036;-76
2024/01/18 12:51:30;;;;;;;2.33;0.63;;;;;;;;;;5071515;28;20048;-76
2024/01/18 12:53:56;;;;;;;4.90;0.82;;;;;;;;;;5070297;28;20107;-76
2024/01/18 12:56:23;;;;;;;1.73;0.70;;;;;;;;;;5074382;28;20072;-76
2024/01/18 12:58:49;;;;;;;2.05;0.90;;;;;;;;;;5070422;28;20048;-76
2024/01/18 13:01:32;;;;;;;2.28;0.75;;;;;;;;;;5072576;28;20115;-76
2024/01/18 13:04:14;;;;;;;2.45;0.70;;;;;;;;;;5069932;28;20040;-75
2024/01/18 13:06:45;;;;;;;2.38;0.77;;;;;;;;;;5072443;28;20063;-75
2024/01/18 13:09:14;;;;;;;3.83;0.52;;;;;;;;;;5066985;28;20119;-76
2024/01/18 13:11:41;;;;;;;1.52;0.50;;;;;;;;;;5073650;28;20036;-75
2024/01/18 13:14:09;;;;;;;2.85;0.75;;;;;;;;;;5073138;28;20578;-75
2024/01/18 13:16:35;;;;;;;3.08;0.82;;;;;;;;;;5070656;28;20040;-71
2024/01/18 13:19:02;;;;;;;3.95;2.42;;;;;;;;;;5070013;28;20051;-75
2024/01/18 13:21:28;;;;;;;10.98;5.55;;;;;;;;;;5046462;28;20052;-75
2024/01/18 13:23:55;;;;;;;6.03;1.35;;;;;;;;;;5068706;28;20052;-75
2024/01/18 13:26:21;;;;;;;256.00;86.60;;;;;;;;;;5067165;28;20080;-76
2024/01/18 13:28:47;;;;;;;28.50;10.68;;;;;;;;;;5057096;28;20048;-75
2024/01/18 13:31:13;;;;;;;214.35;72.00;;;;;;;;;;5070983;28;20052;-75
2024/01/18 13:33:39;;;;;;;19.42;6.97;;;;;;;;;;5085594;28;20045;-75
2024/01/18 13:36:06;;;;;;;65.03;22.85;;;;;;;;;;5068437;28;20048;-75
2024/01/18 13:38:33;;;;;;;90.55;31.25;;;;;;;;;;5069426;28;20131;-76
2024/01/18 13:41:00;;;;;;;22.25;7.82;;;;;;;;;;5068853;28;20039;-76
2024/01/18 13:43:26;;;;;;;33.80;11.25;;;;;;;;;;5068939;28;20056;-75
2024/01/18 13:45:52;;;;;;;138.63;48.58;;;;;;;;;;5070042;28;20069;-75
2024/01/18 13:48:18;;;;;;;56.40;19.83;;;;;;;;;;5069709;28;20071;-76
2024/01/18 13:50:44;;;;;;;29.35;10.38;;;;;;;;;;5073904;28;20036;-74
2024/01/18 13:53:14;;;;;;;17.15;8.50;;;;;;;;;;5073944;28;20474;-74
2024/01/18 13:55:41;;;;;;;6.63;3.70;;;;;;;;;;5077638;28;20118;-76
2024/01/18 13:58:11;;;;;;;10.98;5.28;;;;;;;;;;5071299;28;20040;-76
2024/01/18 14:00:37;;;;;;;6.55;4.30;;;;;;;;;;5075589;28;20055;-76
2024/01/18 14:03:05;;;;;;;5.18;1.92;;;;;;;;;;5068874;28;20040;-77
2024/01/18 14:05:32;;;;;;;4.90;2.80;;;;;;;;;;5070305;28;20052;-77
2024/01/18 14:07:58;;;;;;;4.07;1.73;;;;;;;;;;5055875;28;20119;-77
2024/01/18 14:10:24;;;;;;;3.38;1.92;;;;;;;;;;5070400;28;20056;-77
2024/01/18 14:12:51;;;;;;;7.60;1.20;;;;;;;;;;5071870;28;20561;-77
2024/01/18 14:15:17;;;;;;;3.70;1.17;;;;;;;;;;5071706;28;20353;-77
2024/01/18 14:17:43;;;;;;;3.47;1.52;;;;;;;;;;5075420;28;20036;-77
2024/01/18 14:20:09;;;;;;;6.50;1.63;;;;;;;;;;5071973;28;20054;-77
2024/01/18 14:22:36;;;;;;;3.58;1.42;;;;;;;;;;5071291;28;20071;-78
2024/01/18 14:25:02;;;;;;;5.50;1.10;;;;;;;;;;5057074;28;20048;-78
2024/01/18 14:27:28;;;;;;;4.15;1.50;;;;;;;;;;5074526;28;20053;-78
2024/01/18 14:29:54;;;;;;;7.15;1.45;;;;;;;;;;5072820;28;20048;-77
2024/01/18 14:32:20;;;;;;;13.55;7.22;;;;;;;;;;5069324;28;20082;-77